createdAt,value
2023-02-26T00:00:11.955Z,2.92
2023-02-26T00:02:57.379Z,3.65
2023-02-26T00:05:45.668Z,2.75
2023-02-26T00:08:31.452Z,2.78
2023-02-26T00:11:17.813Z,2.60
2023-02-26T00:14:03.235Z,3.22
2023-02-26T00:17:20.201Z,2.70
2023-02-26T00:20:07.586Z,2.92
2023-02-26T00:22:53.250Z,2.70
2023-02-26T00:25:38.707Z,2.45
2023-02-26T00:28:24.556Z,3.15
2023-02-26T00:31:10.645Z,3.45
2023-02-26T00:33:58.325Z,2.83
2023-02-26T00:36:44.123Z,3.20
2023-02-26T00:39:50.968Z,3.17
2023-02-26T00:42:36.370Z,2.90
2023-02-26T00:45:22.013Z,2.90
2023-02-26T00:48:16.121Z,3.53
2023-02-26T00:51:10.506Z,4.18
2023-02-26T00:54:11.305Z,2.65
2023-02-26T00:56:57.942Z,3.88
2023-02-26T00:59:43.589Z,3.22
2023-02-26T01:02:29.540Z,2.85
2023-02-26T01:05:15.937Z,2.47
2023-02-26T01:08:13.998Z,3.45
2023-02-26T01:11:01.296Z,2.75
2023-02-26T01:13:47.902Z,3.38
2023-02-26T01:16:44.170Z,2.47
2023-02-26T01:19:44.426Z,3.63
2023-02-26T01:22:40.303Z,2.97
2023-02-26T01:25:35.157Z,3.95
2023-02-26T01:28:21.526Z,4.80
2023-02-26T01:31:15.710Z,2.97
2023-02-26T01:34:18.369Z,3.03
2023-02-26T01:37:45.649Z,2.97
2023-02-26T01:40:53.086Z,2.65
2023-02-26T01:44:00.254Z,2.65
2023-02-26T01:46:45.570Z,2.97
2023-02-26T01:49:31.726Z,2.40
2023-02-26T01:52:49.479Z,3.53
2023-02-26T01:55:40.955Z,3.78
2023-02-26T01:58:29.920Z,2.50
2023-02-26T02:01:15.463Z,2.05
2023-02-26T02:04:16.543Z,2.70
2023-02-26T02:07:02.661Z,3.45
2023-02-26T02:09:48.047Z,2.65
2023-02-26T02:12:45.571Z,2.00
2023-02-26T02:15:42.014Z,2.83
2023-02-26T02:18:41.408Z,2.30
2023-02-26T02:21:44.687Z,3.08
2023-02-26T02:25:09.400Z,3.83
2023-02-26T02:28:23.358Z,2.50
2023-02-26T02:34:06.446Z,2.80
2023-02-26T02:37:01.463Z,2.00
2023-02-26T02:39:46.666Z,2.20
2023-02-26T02:42:46.482Z,3.20
2023-02-26T02:45:51.365Z,2.47
2023-02-26T02:48:53.103Z,2.42
2023-02-26T02:51:47.205Z,3.00
2023-02-26T02:54:59.114Z,2.20
2023-02-26T02:57:52.332Z,3.10
2023-02-26T03:00:44.343Z,2.47
2023-02-26T03:03:43.481Z,2.67
2023-02-26T03:06:29.471Z,2.80
2023-02-26T03:09:15.059Z,3.45
2023-02-26T03:12:00.827Z,2.60
2023-02-26T03:14:46.163Z,3.70
2023-02-26T03:17:46.403Z,3.40
2023-02-26T03:20:41.448Z,2.50
2023-02-26T03:23:34.154Z,4.60
2023-02-26T03:26:34.477Z,2.63
2023-02-26T03:29:26.602Z,2.60
2023-02-26T03:32:17.915Z,2.55
2023-02-26T03:35:14.332Z,2.92
2023-02-26T03:38:04.476Z,2.25
2023-02-26T03:40:55.464Z,2.97
2023-02-26T03:43:48.506Z,2.55
2023-02-26T03:46:39.460Z,3.15
2023-02-26T03:49:30.156Z,2.70
2023-02-26T03:52:16.739Z,2.47
2023-02-26T03:55:17.481Z,2.00
2023-02-26T03:58:03.138Z,2.50
2023-02-26T04:00:55.665Z,3.63
2023-02-26T04:04:07.647Z,3.27
2023-02-26T04:06:56.786Z,3.75
2023-02-26T04:09:44.432Z,2.15
2023-02-26T04:12:30.511Z,2.90
2023-02-26T04:15:16.180Z,2.83
2023-02-26T04:18:01.630Z,2.55
2023-02-26T04:20:47.111Z,2.30
2023-02-26T04:23:33.140Z,2.80
2023-02-26T04:26:18.592Z,2.42
2023-02-26T04:29:04.372Z,2.30
2023-02-26T04:31:50.285Z,2.17
2023-02-26T04:34:35.684Z,3.35
2023-02-26T04:37:21.337Z,3.00
2023-02-26T04:40:07.482Z,2.88
2023-02-26T04:42:52.987Z,2.83
2023-02-26T04:45:38.237Z,2.15
2023-02-26T04:48:23.956Z,2.08
2023-02-26T04:51:09.426Z,2.20
2023-02-26T04:53:54.817Z,2.28
2023-02-26T04:56:40.396Z,2.35
2023-02-26T04:59:25.973Z,2.92
2023-02-26T05:02:11.262Z,1.98
2023-02-26T05:04:56.856Z,2.40
2023-02-26T05:07:42.235Z,3.05
2023-02-26T05:10:28.011Z,2.40
2023-02-26T05:13:13.603Z,3.20
2023-02-26T05:15:58.802Z,2.17
2023-02-26T05:18:44.411Z,2.80
2023-02-26T05:21:29.732Z,2.00
2023-02-26T05:24:15.926Z,3.22
2023-02-26T05:27:01.375Z,2.40
2023-02-26T05:29:46.705Z,2.00
2023-02-26T05:32:31.881Z,1.98
2023-02-26T05:35:17.410Z,2.83
2023-02-26T05:38:03.018Z,1.92
2023-02-26T05:40:48.418Z,2.05
2023-02-26T05:43:34.078Z,3.03
2023-02-26T05:46:19.539Z,2.30
2023-02-26T05:49:05.000Z,2.92
2023-02-26T05:51:50.607Z,2.97
2023-02-26T05:54:36.292Z,2.72
2023-02-26T05:57:22.806Z,2.63
2023-02-26T06:00:09.702Z,2.63
2023-02-26T06:02:55.239Z,2.22
2023-02-26T06:05:40.964Z,2.10
2023-02-26T06:08:27.234Z,3.20
2023-02-26T06:11:12.737Z,2.72
2023-02-26T06:13:58.107Z,2.42
2023-02-26T06:16:43.530Z,2.47
2023-02-26T06:19:29.191Z,2.05
2023-02-26T06:22:14.875Z,3.25
2023-02-26T06:25:00.357Z,2.25
2023-02-26T06:27:46.027Z,2.33
2023-02-26T06:30:31.747Z,2.60
2023-02-26T06:33:16.958Z,3.75
2023-02-26T06:36:02.969Z,2.15
2023-02-26T06:38:48.609Z,2.00
2023-02-26T06:41:34.698Z,2.05
2023-02-26T06:44:20.069Z,2.78
2023-02-26T06:47:05.753Z,2.10
2023-02-26T06:49:51.178Z,2.00
2023-02-26T06:52:36.816Z,2.83
2023-02-26T06:55:26.838Z,2.00
2023-02-26T06:58:13.298Z,2.05
2023-02-26T07:00:58.543Z,2.20
2023-02-26T07:03:44.282Z,3.80
2023-02-26T07:06:29.831Z,3.15
2023-02-26T07:09:15.228Z,2.30
2023-02-26T07:12:00.712Z,1.98
2023-02-26T07:14:46.139Z,1.67
2023-02-26T07:17:32.223Z,2.95
2023-02-26T07:20:18.448Z,1.90
2023-02-26T07:23:04.188Z,2.30
2023-02-26T07:25:50.449Z,1.45
2023-02-26T07:28:36.328Z,3.05
2023-02-26T07:31:22.116Z,1.75
2023-02-26T07:34:07.705Z,2.38
2023-02-26T07:36:53.451Z,1.98
2023-02-26T07:39:39.490Z,1.98
2023-02-26T07:42:25.054Z,2.33
2023-02-26T07:45:11.459Z,1.75
2023-02-26T07:47:57.494Z,1.92
2023-02-26T07:50:43.902Z,2.45
2023-02-26T07:53:29.401Z,2.53
2023-02-26T07:56:14.848Z,1.63
2023-02-26T07:58:59.994Z,2.58
2023-02-26T08:01:45.683Z,1.75
2023-02-26T08:04:33.045Z,3.13
2023-02-26T08:07:19.047Z,2.45
2023-02-26T08:10:05.296Z,2.30
2023-02-26T08:12:50.769Z,2.47
2023-02-26T08:15:36.329Z,2.17
2023-02-26T08:18:22.098Z,2.38
2023-02-26T08:21:07.486Z,2.08
2023-02-26T08:23:53.057Z,1.50
2023-02-26T08:26:38.586Z,2.33
2023-02-26T08:29:25.216Z,2.55
2023-02-26T08:32:10.573Z,2.50
2023-02-26T08:34:56.051Z,2.15
2023-02-26T08:37:42.099Z,1.98
2023-02-26T08:40:27.700Z,2.58
2023-02-26T08:43:13.189Z,2.40
2023-02-26T08:45:59.486Z,1.77
2023-02-26T08:48:45.420Z,1.80
2023-02-26T08:51:30.787Z,1.75
2023-02-26T08:54:16.658Z,1.90
2023-02-26T08:57:02.058Z,1.50
2023-02-26T08:59:47.950Z,2.13
2023-02-26T09:02:33.308Z,2.00
2023-02-26T09:05:19.059Z,1.42
2023-02-26T09:08:04.987Z,1.58
2023-02-26T09:10:50.276Z,1.70
2023-02-26T09:13:35.770Z,1.80
2023-02-26T09:16:21.391Z,1.65
2023-02-26T09:19:07.696Z,1.80
2023-02-26T09:21:52.963Z,1.92
2023-02-26T09:24:38.611Z,1.48
2023-02-26T09:27:25.002Z,1.98
2023-02-26T09:30:11.128Z,1.88
2023-02-26T09:32:56.500Z,1.75
2023-02-26T09:35:41.658Z,3.00
2023-02-26T09:38:27.338Z,1.75
2023-02-26T09:41:55.618Z,2.17
2023-02-26T09:44:40.916Z,2.00
2023-02-26T09:47:26.701Z,1.75
2023-02-26T09:50:49.899Z,1.65
2023-02-26T09:53:41.329Z,1.73
2023-02-26T09:56:27.957Z,2.00
2023-02-26T09:59:13.649Z,1.80
2023-02-26T10:02:06.925Z,2.22
2023-02-26T10:05:18.913Z,1.85
2023-02-26T10:08:12.696Z,1.85
2023-02-26T10:11:11.474Z,1.48
2023-02-26T10:14:06.960Z,1.40
2023-02-26T10:16:58.212Z,1.40
2023-02-26T10:19:50.086Z,1.65
2023-02-26T10:22:47.162Z,2.55
2023-02-26T10:25:58.939Z,1.40
2023-02-26T10:29:02.374Z,1.98
2023-02-26T10:32:00.632Z,2.60
2023-02-26T10:34:58.807Z,1.38
2023-02-26T10:38:04.127Z,1.90
2023-02-26T10:40:59.627Z,1.75
2023-02-26T10:43:58.735Z,1.92
2023-02-26T10:46:55.981Z,1.50
2023-02-26T10:50:04.443Z,1.48
2023-02-26T10:52:51.250Z,1.40
2023-02-26T10:55:47.513Z,1.50
2023-02-26T10:58:33.613Z,1.75
2023-02-26T11:01:22.460Z,1.38
2023-02-26T11:04:18.074Z,1.27
2023-02-26T11:07:05.433Z,1.27
2023-02-26T11:09:51.042Z,1.60
2023-02-26T11:12:37.351Z,1.38
2023-02-26T11:15:26.590Z,0.82
2023-02-26T11:18:20.750Z,1.00
2023-02-26T11:21:07.425Z,0.80
2023-02-26T11:24:04.086Z,0.80
2023-02-26T11:26:51.804Z,0.93
2023-02-26T11:29:40.278Z,0.90
2023-02-26T11:32:32.865Z,0.93
2023-02-26T11:35:22.944Z,0.68
2023-02-26T11:38:17.296Z,1.30
2023-02-26T11:41:03.343Z,1.08
2023-02-26T11:43:58.492Z,0.88
2023-02-26T11:47:07.138Z,0.73
2023-02-26T11:50:01.965Z,0.75
2023-02-26T11:52:55.286Z,1.17
2023-02-26T11:55:45.727Z,1.17
2023-02-26T11:58:39.090Z,1.20
2023-02-26T12:01:29.353Z,0.90
2023-02-26T12:04:23.396Z,1.92
2023-02-26T12:07:13.997Z,1.20
2023-02-26T12:09:59.538Z,1.20
2023-02-26T12:13:02.090Z,1.38
2023-02-26T12:16:02.325Z,1.33
2023-02-26T12:19:16.879Z,1.00
2023-02-26T12:22:35.112Z,1.23
2023-02-26T12:25:39.819Z,1.40
2023-02-26T12:28:37.561Z,1.92
2023-02-26T12:31:38.021Z,1.40
2023-02-26T12:34:52.576Z,1.30
2023-02-26T12:37:54.552Z,1.23
2023-02-26T12:40:49.830Z,1.17
2023-02-26T12:43:46.151Z,1.60
2023-02-26T12:46:58.715Z,1.35
2023-02-26T12:50:08.186Z,1.63
2023-02-26T12:53:30.502Z,1.42
2023-02-26T12:56:51.137Z,1.33
2023-02-26T12:59:59.290Z,1.60
2023-02-26T13:03:12.516Z,1.63
2023-02-26T13:06:16.661Z,1.70
2023-02-26T13:09:12.030Z,1.27
2023-02-26T13:12:22.938Z,0.95
2023-02-26T13:15:20.995Z,1.77
2023-02-26T13:18:31.202Z,2.03
2023-02-26T13:21:33.445Z,2.35
2023-02-26T13:24:32.417Z,5.40
2023-02-26T13:27:20.157Z,3.05
2023-02-26T13:30:25.308Z,1.75
2023-02-26T13:33:20.306Z,1.67
2023-02-26T13:36:08.414Z,1.45
2023-02-26T13:39:22.658Z,1.42
2023-02-26T13:42:52.802Z,1.42
2023-02-26T13:46:13.370Z,1.40
2023-02-26T13:49:02.683Z,1.17
2023-02-26T13:51:50.041Z,1.30
2023-02-26T13:54:45.953Z,1.73
2023-02-26T13:57:34.536Z,1.63
2023-02-26T14:00:33.881Z,1.75
2023-02-26T14:03:26.065Z,1.90
2023-02-26T14:06:20.500Z,1.65
2023-02-26T14:09:25.898Z,1.25
2023-02-26T14:12:15.747Z,1.60
2023-02-26T14:15:13.009Z,1.15
2023-02-26T14:18:05.732Z,1.77
2023-02-26T14:20:51.941Z,0.75
2023-02-26T14:23:38.182Z,1.55
2023-02-26T14:26:25.648Z,4.50
2023-02-26T14:29:37.590Z,2.47
2023-02-26T14:32:49.113Z,0.90
2023-02-26T14:35:47.647Z,2.42
2023-02-26T14:38:38.832Z,2.58
2023-02-26T14:41:36.472Z,1.20
2023-02-26T14:44:28.760Z,1.40
2023-02-26T14:47:14.387Z,0.90
2023-02-26T14:50:00.565Z,1.08
2023-02-26T14:53:24.296Z,0.50
2023-02-26T14:56:34.390Z,1.63
2023-02-26T14:59:19.986Z,1.75
2023-02-26T15:02:14.721Z,1.25
2023-02-26T15:05:22.638Z,1.00
2023-02-26T15:08:26.955Z,1.40
2023-02-26T15:11:29.627Z,1.40
2023-02-26T15:14:33.360Z,3.30
2023-02-26T15:17:49.306Z,1.50
2023-02-26T15:21:10.272Z,1.35
2023-02-26T15:23:58.442Z,1.33
2023-02-26T15:26:51.482Z,1.50
2023-02-26T15:29:38.976Z,1.27
2023-02-26T15:32:36.089Z,1.30
2023-02-26T15:35:23.276Z,1.85
2023-02-26T15:38:10.290Z,1.13
2023-02-26T15:41:06.398Z,0.93
2023-02-26T15:43:57.652Z,1.00
2023-02-26T15:46:50.635Z,0.90
2023-02-26T15:49:42.246Z,1.00
2023-02-26T15:52:28.834Z,1.10
2023-02-26T15:55:18.075Z,1.20
2023-02-26T15:58:05.479Z,2.20
2023-02-26T16:00:55.183Z,1.48
2023-02-26T16:03:40.799Z,1.05
2023-02-26T16:06:31.301Z,0.80
2023-02-26T16:09:34.715Z,0.65
2023-02-26T16:12:30.253Z,1.00
2023-02-26T16:15:32.108Z,0.80
2023-02-26T16:18:21.965Z,1.33
2023-02-26T16:21:09.233Z,0.95
2023-02-26T16:23:58.025Z,1.67
2023-02-26T16:26:49.243Z,1.27
2023-02-26T16:29:37.717Z,1.02
2023-02-26T16:32:25.785Z,1.10
2023-02-26T16:35:17.388Z,1.40
2023-02-26T16:38:31.347Z,1.17
2023-02-26T16:41:21.329Z,1.10
2023-02-26T16:44:47.369Z,1.35
2023-02-26T16:47:32.899Z,1.50
2023-02-26T16:50:24.377Z,2.40
2023-02-26T16:53:16.031Z,1.80
2023-02-26T16:56:03.712Z,1.98
2023-02-26T16:59:02.712Z,1.80
2023-02-26T17:01:54.304Z,1.63
2023-02-26T17:04:41.815Z,1.70
2023-02-26T17:07:36.469Z,1.20
2023-02-26T17:10:33.497Z,2.17
2023-02-26T17:13:28.060Z,1.38
2023-02-26T17:16:14.254Z,1.50
2023-02-26T17:19:02.144Z,1.40
2023-02-26T17:21:52.826Z,1.60
2023-02-26T17:24:41.093Z,2.03
2023-02-26T17:27:35.205Z,1.55
2023-02-26T17:30:24.252Z,2.65
2023-02-26T17:33:13.499Z,1.92
2023-02-26T17:36:02.201Z,1.40
2023-02-26T17:38:48.477Z,3.83
2023-02-26T17:41:34.385Z,4.95
2023-02-26T17:44:19.975Z,1.58
2023-02-26T17:47:05.675Z,1.23
2023-02-26T17:49:51.628Z,1.67
2023-02-26T17:52:37.162Z,1.45
2023-02-26T17:55:22.705Z,2.58
2023-02-26T17:58:16.678Z,1.70
2023-02-26T18:01:04.103Z,1.88
2023-02-26T18:03:54.677Z,1.27
2023-02-26T18:06:40.644Z,1.88
2023-02-26T18:09:26.097Z,2.10
2023-02-26T18:12:16.768Z,2.25
2023-02-26T18:15:02.728Z,3.17
2023-02-26T18:17:48.402Z,1.55
2023-02-26T18:20:33.762Z,1.92
2023-02-26T18:23:20.079Z,2.15
2023-02-26T18:26:06.083Z,3.80
2023-02-26T18:28:51.622Z,4.03
2023-02-26T18:31:37.980Z,6.32
2023-02-26T18:34:23.866Z,5.28
2023-02-26T18:37:13.980Z,3.60
2023-02-26T18:39:59.621Z,3.92
2023-02-26T18:42:45.101Z,4.30
2023-02-26T18:45:30.713Z,3.33
2023-02-26T18:48:18.925Z,3.42
2023-02-26T18:51:04.339Z,2.95
2023-02-26T18:53:50.087Z,3.05
2023-02-26T18:56:36.801Z,3.92
2023-02-26T18:59:22.280Z,5.00
2023-02-26T19:02:11.081Z,7.00
2023-02-26T19:04:57.027Z,4.60
2023-02-26T19:07:43.462Z,3.90
2023-02-26T19:10:35.427Z,3.88
2023-02-26T19:13:23.990Z,3.45
2023-02-26T19:16:09.922Z,2.85
2023-02-26T19:18:55.684Z,3.90
2023-02-26T19:21:41.326Z,3.13
2023-02-26T19:24:27.029Z,2.97
2023-02-26T19:27:14.033Z,3.85
2023-02-26T19:29:59.723Z,3.45
2023-02-26T19:32:45.419Z,3.45
2023-02-26T19:35:30.815Z,3.55
2023-02-26T19:38:17.090Z,2.42
2023-02-26T19:41:02.861Z,3.85
2023-02-26T19:43:48.509Z,3.67
2023-02-26T19:46:34.273Z,2.80
2023-02-26T19:49:20.140Z,2.22
2023-02-26T19:52:08.205Z,1.90
2023-02-26T19:54:53.869Z,2.50
2023-02-26T19:57:40.018Z,2.75
2023-02-26T20:00:25.877Z,2.95
2023-02-26T20:03:11.307Z,2.13
2023-02-26T20:05:57.480Z,2.15
2023-02-26T20:08:43.053Z,2.28
2023-02-26T20:11:28.861Z,2.40
2023-02-26T20:14:14.494Z,2.33
2023-02-26T20:17:00.452Z,1.83
2023-02-26T20:19:46.891Z,1.58
2023-02-26T20:22:33.042Z,2.63
2023-02-26T20:25:19.884Z,2.20
2023-02-26T20:28:05.762Z,1.90
2023-02-26T20:30:52.071Z,2.45
2023-02-26T20:33:39.590Z,2.10
2023-02-26T20:36:25.237Z,2.42
2023-02-26T20:39:10.940Z,2.55
2023-02-26T20:41:56.745Z,2.47
2023-02-26T20:44:42.213Z,2.80
2023-02-26T20:47:28.144Z,2.78
2023-02-26T20:50:13.663Z,2.10
2023-02-26T20:52:59.140Z,2.35
2023-02-26T20:55:44.580Z,1.98
2023-02-26T20:59:34.476Z,2.13
2023-02-26T21:02:21.111Z,2.28
2023-02-26T21:05:07.777Z,2.33
2023-02-26T21:07:53.461Z,3.15
2023-02-26T21:10:41.019Z,3.20
2023-02-26T21:13:26.263Z,4.13
2023-02-26T21:16:12.295Z,3.83
2023-02-26T21:19:03.803Z,3.63
2023-02-26T21:21:49.309Z,3.20
2023-02-26T21:24:35.098Z,3.65
2023-02-26T21:27:20.590Z,3.38
2023-02-26T21:30:10.763Z,4.25
2023-02-26T21:32:56.747Z,5.32
2023-02-26T21:35:42.540Z,3.63
2023-02-26T21:38:28.125Z,4.25
2023-02-26T21:41:13.765Z,4.07
2023-02-26T21:43:59.195Z,3.70
2023-02-26T21:46:45.212Z,3.30
2023-02-26T21:49:32.479Z,3.33
2023-02-26T21:52:18.195Z,3.05
2023-02-26T21:55:03.628Z,3.20
2023-02-26T21:57:49.682Z,2.83
2023-02-26T22:00:35.192Z,2.88
2023-02-26T22:03:21.186Z,3.30
2023-02-26T22:06:06.827Z,2.60
2023-02-26T22:08:53.352Z,2.85
2023-02-26T22:11:38.952Z,2.83
2023-02-26T22:14:24.277Z,2.45
2023-02-26T22:17:10.173Z,2.22
2023-02-26T22:19:55.357Z,1.95
2023-02-26T22:22:41.139Z,2.03
2023-02-26T22:25:26.463Z,2.05
2023-02-26T22:28:12.408Z,2.58
2023-02-26T22:30:58.920Z,3.67
2023-02-26T22:33:44.521Z,2.92
2023-02-26T22:36:31.434Z,3.10
2023-02-26T22:39:17.167Z,3.95
2023-02-26T22:42:02.893Z,3.00
2023-02-26T22:44:48.524Z,3.13
2023-02-26T22:47:35.079Z,2.22
2023-02-26T22:50:20.859Z,1.80
2023-02-26T22:53:07.306Z,1.45
2023-02-26T22:55:55.984Z,2.25
2023-02-26T22:58:41.551Z,2.58
2023-02-26T23:01:29.919Z,3.15
2023-02-26T23:04:15.663Z,3.15
2023-02-26T23:07:01.459Z,2.72
2023-02-26T23:09:46.954Z,4.43
2023-02-26T23:12:32.846Z,4.30
2023-02-26T23:15:18.715Z,2.55
2023-02-26T23:18:04.623Z,4.03
2023-02-26T23:20:50.521Z,2.97
2023-02-26T23:23:36.404Z,3.70
2023-02-26T23:26:21.775Z,3.50
2023-02-26T23:29:07.168Z,4.00
2023-02-26T23:31:53.081Z,3.17
2023-02-26T23:34:38.929Z,3.35
2023-02-26T23:37:24.334Z,3.83
2023-02-26T23:40:10.821Z,4.93
2023-02-26T23:42:56.372Z,4.82
2023-02-26T23:45:42.059Z,3.33
2023-02-26T23:48:27.829Z,4.15
2023-02-26T23:51:13.330Z,3.00
2023-02-26T23:53:59.048Z,3.08
2023-02-26T23:56:47.222Z,2.55
2023-02-26T23:59:33.368Z,2.42
